createdAt,value
2022-12-26T00:00:00.049Z,100315.06
2022-12-26T00:02:26.493Z,100320.38
2022-12-26T00:04:53.943Z,100321.63
2022-12-26T00:07:20.723Z,100314.06
2022-12-26T00:09:47.234Z,100322.75
2022-12-26T00:12:13.800Z,100311.25
2022-12-26T00:14:40.392Z,100315.72
2022-12-26T00:17:07.615Z,100315.19
2022-12-26T00:19:34.140Z,100313.22
2022-12-26T00:22:00.610Z,100283.22
2022-12-26T00:24:27.066Z,100285.31
2022-12-26T00:26:53.713Z,100284.03
2022-12-26T00:29:20.119Z,100281.53
2022-12-26T00:31:46.912Z,100292.75
2022-12-26T00:34:13.589Z,100292.75
2022-12-26T00:36:40.154Z,100295.28
2022-12-26T00:39:06.827Z,100304.28
2022-12-26T00:41:33.796Z,100293.03
2022-12-26T00:44:00.370Z,100288.69
2022-12-26T00:46:27.604Z,100284.63
2022-12-26T00:48:54.392Z,100270.59
2022-12-26T00:51:21.269Z,100272.44
2022-12-26T00:53:47.913Z,100273.00
2022-12-26T00:56:15.580Z,100277.63
2022-12-26T00:58:42.143Z,100275.81
2022-12-26T01:01:21.219Z,100264.00
2022-12-26T01:03:49.088Z,100253.50
2022-12-26T01:06:17.074Z,100264.16
2022-12-26T01:08:44.212Z,100262.91
2022-12-26T01:11:13.584Z,100252.25
2022-12-26T01:13:40.293Z,100254.88
2022-12-26T01:16:07.954Z,100249.28
2022-12-26T01:18:34.981Z,100249.69
2022-12-26T01:21:04.306Z,100246.59
2022-12-26T01:23:30.978Z,100241.25
2022-12-26T01:26:14.921Z,100250.56
2022-12-26T01:28:43.849Z,100254.34
2022-12-26T01:31:10.343Z,100256.88
2022-12-26T01:33:36.956Z,100263.31
2022-12-26T01:36:03.553Z,100244.22
2022-12-26T01:38:30.151Z,100254.94
2022-12-26T01:41:15.259Z,100238.69
2022-12-26T01:44:02.128Z,100247.13
2022-12-26T01:46:37.567Z,100235.41
2022-12-26T01:49:18.047Z,100230.22
2022-12-26T01:51:50.142Z,100239.72
2022-12-26T01:54:39.735Z,100248.00
2022-12-26T01:57:06.779Z,100232.72
2022-12-26T01:59:37.363Z,100235.00
2022-12-26T02:02:05.084Z,100243.81
2022-12-26T02:04:57.012Z,100237.94
2022-12-26T02:07:24.353Z,100223.19
2022-12-26T02:09:50.974Z,100230.78
2022-12-26T02:12:36.437Z,100240.59
2022-12-26T02:15:11.461Z,100234.38
2022-12-26T02:17:39.158Z,100242.09
2022-12-26T02:20:26.029Z,100234.28
2022-12-26T02:23:01.489Z,100239.31
2022-12-26T02:25:57.402Z,100218.91
2022-12-26T02:28:53.111Z,100229.56
2022-12-26T02:31:35.646Z,100233.53
2022-12-26T02:34:04.762Z,100219.72
2022-12-26T02:37:04.040Z,100229.09
2022-12-26T02:39:48.689Z,100217.16
2022-12-26T02:42:30.305Z,100217.63
2022-12-26T02:45:31.406Z,100222.00
2022-12-26T02:48:16.052Z,100211.44
2022-12-26T02:51:20.037Z,100213.94
2022-12-26T02:54:26.989Z,100216.81
2022-12-26T02:57:18.331Z,100220.91
2022-12-26T03:00:22.939Z,100225.00
2022-12-26T03:03:37.469Z,100227.88
2022-12-26T03:06:31.833Z,100228.81
2022-12-26T03:09:31.248Z,100231.00
2022-12-26T03:12:21.770Z,100230.66
2022-12-26T03:14:53.795Z,100234.59
2022-12-26T03:17:39.764Z,100243.47
2022-12-26T03:20:15.499Z,100233.03
2022-12-26T03:22:46.723Z,100224.31
2022-12-26T03:25:37.845Z,100226.72
2022-12-26T03:28:04.405Z,100233.59
2022-12-26T03:30:49.544Z,100243.81
2022-12-26T03:33:59.938Z,100244.31
2022-12-26T03:36:29.220Z,100236.19
2022-12-26T03:39:13.760Z,100243.19
2022-12-26T03:42:08.459Z,100235.47
2022-12-26T03:45:22.052Z,100236.31
2022-12-26T03:48:19.966Z,100237.25
2022-12-26T03:51:14.960Z,100238.38
2022-12-26T03:54:16.197Z,100249.25
2022-12-26T03:57:12.700Z,100254.97
2022-12-26T04:00:09.628Z,100244.84
2022-12-26T04:02:58.090Z,100233.59
2022-12-26T04:05:43.763Z,100226.59
2022-12-26T04:08:38.542Z,100243.13
2022-12-26T04:11:24.866Z,100272.34
2022-12-26T04:14:21.901Z,100270.38
2022-12-26T04:17:24.008Z,100264.75
2022-12-26T04:19:54.908Z,100264.13
2022-12-26T04:22:56.471Z,100250.84
2022-12-26T04:25:50.130Z,100250.44
2022-12-26T04:28:36.587Z,100244.00
2022-12-26T04:31:45.769Z,100254.81
2022-12-26T04:34:40.813Z,100257.88
2022-12-26T04:37:34.389Z,100269.00
2022-12-26T04:40:21.392Z,100259.59
2022-12-26T04:43:47.297Z,100265.38
2022-12-26T04:45:54.850Z,100259.72
2022-12-26T04:48:39.913Z,100263.09
2022-12-26T04:51:06.385Z,100270.09
2022-12-26T04:53:32.983Z,100270.06
2022-12-26T04:55:59.460Z,100269.75
2022-12-26T04:58:28.531Z,100276.50
2022-12-26T05:01:15.060Z,100266.44
2022-12-26T05:04:00.667Z,100269.59
2022-12-26T05:06:53.407Z,100275.28
2022-12-26T05:09:35.595Z,100269.81
2022-12-26T05:12:04.429Z,100263.75
2022-12-26T05:14:31.648Z,100271.69
2022-12-26T05:17:17.846Z,100282.19
2022-12-26T05:20:03.107Z,100290.19
2022-12-26T05:22:51.170Z,100293.31
2022-12-26T05:25:41.726Z,100293.06
2022-12-26T05:28:31.846Z,100304.16
2022-12-26T05:30:58.761Z,100289.25
2022-12-26T05:33:43.896Z,100293.03
2022-12-26T05:36:11.304Z,100290.81
2022-12-26T05:38:37.751Z,100294.97
2022-12-26T05:41:04.949Z,100296.19
2022-12-26T05:43:31.886Z,100301.81
2022-12-26T05:45:58.631Z,100305.34
2022-12-26T05:48:25.122Z,100307.66
2022-12-26T05:50:51.626Z,100313.16
2022-12-26T05:53:18.182Z,100297.81
2022-12-26T05:55:44.838Z,100302.91
2022-12-26T05:58:11.323Z,100314.91
2022-12-26T06:00:37.770Z,100320.78
2022-12-26T06:03:04.417Z,100310.06
2022-12-26T06:05:30.987Z,100312.03
2022-12-26T06:07:57.402Z,100308.31
2022-12-26T06:10:26.251Z,100310.06
2022-12-26T06:12:53.352Z,100318.13
2022-12-26T06:15:19.778Z,100317.41
2022-12-26T06:17:46.202Z,100307.69
2022-12-26T06:20:12.849Z,100309.69
2022-12-26T06:22:39.643Z,100306.41
2022-12-26T06:25:06.865Z,100305.06
2022-12-26T06:27:33.402Z,100307.81
2022-12-26T06:29:59.892Z,100313.09
2022-12-26T06:32:26.382Z,100307.41
2022-12-26T06:34:52.856Z,100319.56
2022-12-26T06:37:19.409Z,100334.22
2022-12-26T06:39:46.568Z,100348.59
2022-12-26T06:42:13.093Z,100337.59
2022-12-26T06:44:39.507Z,100340.09
2022-12-26T06:47:06.014Z,100346.63
2022-12-26T06:49:33.384Z,100353.31
2022-12-26T06:51:59.993Z,100357.97
2022-12-26T06:54:26.423Z,100368.59
2022-12-26T06:56:52.969Z,100362.97
2022-12-26T06:59:19.526Z,100373.09
2022-12-26T07:01:46.144Z,100382.16
2022-12-26T07:04:13.281Z,100368.66
2022-12-26T07:06:39.795Z,100372.59
2022-12-26T07:09:14.774Z,100374.22
2022-12-26T07:11:44.047Z,100379.19
2022-12-26T07:14:10.635Z,100380.00
2022-12-26T07:16:39.042Z,100380.94
2022-12-26T07:19:06.492Z,100385.81
2022-12-26T07:21:39.775Z,100384.25
2022-12-26T07:24:08.906Z,100379.78
2022-12-26T07:26:35.586Z,100385.66
2022-12-26T07:29:02.122Z,100377.88
2022-12-26T07:31:28.921Z,100379.44
2022-12-26T07:33:56.628Z,100374.78
2022-12-26T07:36:25.092Z,100381.47
2022-12-26T07:38:52.117Z,100375.63
2022-12-26T07:41:37.562Z,100375.47
2022-12-26T07:44:05.968Z,100374.94
2022-12-26T07:46:33.054Z,100374.16
2022-12-26T07:48:59.664Z,100374.19
2022-12-26T07:51:27.032Z,100391.81
2022-12-26T07:53:53.532Z,100389.91
2022-12-26T07:56:20.043Z,100407.25
2022-12-26T07:58:50.417Z,100401.84
2022-12-26T08:01:17.606Z,100404.50
2022-12-26T08:03:44.338Z,100412.34
2022-12-26T08:06:11.851Z,100408.13
2022-12-26T08:08:38.864Z,100403.50
2022-12-26T08:11:07.555Z,100401.34
2022-12-26T08:13:35.231Z,100395.69
2022-12-26T08:16:07.047Z,100393.91
2022-12-26T08:18:34.411Z,100391.94
2022-12-26T08:21:00.995Z,100400.91
2022-12-26T08:23:27.612Z,100393.72
2022-12-26T08:25:54.122Z,100391.09
2022-12-26T08:28:20.788Z,100402.47
2022-12-26T08:30:47.515Z,100402.19
2022-12-26T08:33:14.132Z,100406.97
2022-12-26T08:35:40.697Z,100406.47
2022-12-26T08:38:08.057Z,100397.66
2022-12-26T08:40:43.510Z,100399.84
2022-12-26T08:46:08.938Z,100404.38
2022-12-26T08:48:36.519Z,100414.88
2022-12-26T08:51:06.903Z,100404.19
2022-12-26T08:53:35.801Z,100402.72
2022-12-26T08:56:05.148Z,100411.09
2022-12-26T08:58:32.358Z,100400.25
2022-12-26T09:01:12.645Z,100403.59
2022-12-26T09:03:40.023Z,100408.97
2022-12-26T09:06:06.978Z,100423.38
2022-12-26T09:08:37.301Z,100426.50
2022-12-26T09:11:15.364Z,100436.63
2022-12-26T09:13:43.199Z,100441.81
2022-12-26T09:16:22.460Z,100439.31
2022-12-26T09:18:53.024Z,100449.72
2022-12-26T09:21:19.469Z,100445.91
2022-12-26T09:23:45.937Z,100455.78
2022-12-26T09:26:20.103Z,100453.94
2022-12-26T09:28:47.379Z,100444.91
2022-12-26T09:31:17.955Z,100452.91
2022-12-26T09:33:45.063Z,100453.16
2022-12-26T09:36:15.242Z,100453.44
2022-12-26T09:38:42.937Z,100449.94
2022-12-26T09:41:39.301Z,100440.44
2022-12-26T09:44:23.457Z,100445.22
2022-12-26T09:47:26.872Z,100447.53
2022-12-26T09:50:14.504Z,100448.34
2022-12-26T09:52:43.906Z,100440.47
2022-12-26T09:55:34.626Z,100448.06
2022-12-26T09:58:27.130Z,100450.41
2022-12-26T10:01:09.940Z,100452.81
2022-12-26T10:03:41.303Z,100454.47
2022-12-26T10:06:19.650Z,100444.63
2022-12-26T10:09:15.736Z,100465.47
2022-12-26T10:11:58.227Z,100474.31
2022-12-26T10:14:43.468Z,100475.59
2022-12-26T10:17:40.594Z,100480.03
2022-12-26T10:20:07.991Z,100485.91
2022-12-26T10:23:08.255Z,100486.97
2022-12-26T10:25:48.096Z,100480.56
2022-12-26T10:28:33.387Z,100485.88
2022-12-26T10:31:05.748Z,100482.75
2022-12-26T10:33:53.309Z,100466.41
2022-12-26T10:36:35.285Z,100468.81
2022-12-26T10:39:05.874Z,100475.56
2022-12-26T10:41:45.170Z,100470.50
2022-12-26T10:44:13.002Z,100463.63
2022-12-26T10:47:04.147Z,100463.31
2022-12-26T10:49:30.631Z,100458.50
2022-12-26T10:52:00.603Z,100471.19
2022-12-26T10:54:29.201Z,100468.13
2022-12-26T10:56:58.162Z,100472.06
2022-12-26T10:59:38.636Z,100463.84
2022-12-26T11:02:16.009Z,100472.19
2022-12-26T11:05:27.377Z,100474.00
2022-12-26T11:07:54.877Z,100475.31
2022-12-26T11:10:25.507Z,100483.16
2022-12-26T11:12:55.098Z,100473.06
2022-12-26T11:15:33.945Z,100482.25
2022-12-26T11:18:16.117Z,100481.41
2022-12-26T11:20:43.467Z,100483.81
2022-12-26T11:23:21.730Z,100480.00
2022-12-26T11:25:51.385Z,100485.19
2022-12-26T11:28:27.845Z,100471.09
2022-12-26T11:30:54.945Z,100459.03
2022-12-26T11:33:28.374Z,100457.00
2022-12-26T11:35:59.627Z,100445.63
2022-12-26T11:38:42.735Z,100444.59
2022-12-26T11:41:36.539Z,100455.03
2022-12-26T11:44:12.310Z,100459.66
2022-12-26T11:46:43.928Z,100458.09
2022-12-26T11:49:17.958Z,100466.34
2022-12-26T11:51:47.382Z,100470.47
2022-12-26T11:54:20.892Z,100471.09
2022-12-26T11:56:48.513Z,100472.34
2022-12-26T11:59:21.203Z,100469.22
2022-12-26T12:02:09.786Z,100463.13
2022-12-26T12:04:36.269Z,100477.81
2022-12-26T12:07:13.804Z,100483.66
2022-12-26T12:10:03.199Z,100484.97
2022-12-26T12:12:47.369Z,100473.53
2022-12-26T12:15:28.521Z,100469.84
2022-12-26T12:18:13.215Z,100458.78
2022-12-26T12:20:56.721Z,100468.06
2022-12-26T12:23:53.377Z,100463.72
2022-12-26T12:27:04.601Z,100455.56
2022-12-26T12:29:56.636Z,100452.38
2022-12-26T12:32:40.202Z,100452.25
2022-12-26T12:35:18.659Z,100446.53
2022-12-26T12:38:18.432Z,100428.47
2022-12-26T12:41:16.612Z,100436.22
2022-12-26T12:43:45.799Z,100437.88
2022-12-26T12:46:40.346Z,100447.78
2022-12-26T12:49:45.091Z,100440.09
2022-12-26T12:52:14.500Z,100441.44
2022-12-26T12:55:23.866Z,100440.47
2022-12-26T12:57:57.994Z,100457.66
2022-12-26T13:00:29.015Z,100451.97
2022-12-26T13:03:34.665Z,100450.19
2022-12-26T13:06:10.143Z,100457.00
2022-12-26T13:09:05.036Z,100449.09
2022-12-26T13:11:43.514Z,100450.03
2022-12-26T13:14:30.855Z,100445.78
2022-12-26T13:17:04.713Z,100440.84
2022-12-26T13:19:40.542Z,100448.97
2022-12-26T13:22:15.362Z,100440.91
2022-12-26T13:24:46.095Z,100450.38
2022-12-26T13:27:21.341Z,100448.69
2022-12-26T13:29:49.206Z,100457.28
2022-12-26T13:32:27.945Z,100453.66
2022-12-26T13:34:56.859Z,100455.97
2022-12-26T13:37:35.188Z,100451.56
2022-12-26T13:40:05.921Z,100447.03
2022-12-26T13:42:56.070Z,100450.38
2022-12-26T13:45:38.027Z,100463.53
2022-12-26T13:48:16.484Z,100453.41
2022-12-26T13:50:55.326Z,100463.69
2022-12-26T13:53:25.742Z,100456.41
2022-12-26T13:55:57.754Z,100453.00
2022-12-26T13:58:53.313Z,100458.88
2022-12-26T14:02:02.886Z,100467.34
2022-12-26T14:04:35.519Z,100483.56
2022-12-26T14:07:11.269Z,100480.28
2022-12-26T14:10:18.315Z,100482.28
2022-12-26T14:13:02.010Z,100479.34
2022-12-26T14:16:13.165Z,100477.91
2022-12-26T14:18:54.542Z,100484.25
2022-12-26T14:21:35.811Z,100480.44
2022-12-26T14:24:21.180Z,100488.56
2022-12-26T14:27:25.363Z,100491.28
2022-12-26T14:30:01.145Z,100488.44
2022-12-26T14:32:47.202Z,100494.94
2022-12-26T14:35:37.176Z,100490.16
2022-12-26T14:38:25.518Z,100496.31
2022-12-26T14:41:02.659Z,100485.41
2022-12-26T14:43:33.893Z,100489.19
2022-12-26T14:46:01.732Z,100481.75
2022-12-26T14:48:28.431Z,100482.28
2022-12-26T14:51:16.439Z,100497.06
2022-12-26T14:53:45.891Z,100494.50
2022-12-26T14:56:18.294Z,100493.66
2022-12-26T14:59:14.325Z,100489.88
2022-12-26T15:01:40.813Z,100491.28
2022-12-26T15:04:20.400Z,100499.44
2022-12-26T15:07:24.090Z,100498.84
2022-12-26T15:09:56.772Z,100493.09
2022-12-26T15:13:00.688Z,100497.34
2022-12-26T15:16:12.113Z,100507.69
2022-12-26T15:18:57.161Z,100496.34
2022-12-26T15:21:38.126Z,100485.38
2022-12-26T15:24:52.795Z,100493.28
2022-12-26T15:27:34.972Z,100481.44
2022-12-26T15:30:16.424Z,100466.31
2022-12-26T15:32:54.395Z,100467.00
2022-12-26T15:35:23.653Z,100469.81
2022-12-26T15:38:27.246Z,100473.88
2022-12-26T15:41:29.064Z,100462.69
2022-12-26T15:44:21.644Z,100472.50
2022-12-26T15:47:18.628Z,100477.00
2022-12-26T15:49:47.938Z,100476.00
2022-12-26T15:52:20.237Z,100463.00
2022-12-26T15:55:05.818Z,100468.19
2022-12-26T15:58:07.026Z,100479.53
2022-12-26T16:00:38.343Z,100476.03
2022-12-26T16:03:23.607Z,100475.34
2022-12-26T16:06:00.108Z,100482.91
2022-12-26T16:08:47.985Z,100466.94
2022-12-26T16:11:19.478Z,100473.09
2022-12-26T16:13:54.689Z,100477.59
2022-12-26T16:16:31.775Z,100482.91
2022-12-26T16:19:02.440Z,100483.47
2022-12-26T16:21:47.998Z,100479.25
2022-12-26T16:24:22.050Z,100490.22
2022-12-26T16:26:48.686Z,100489.94
2022-12-26T16:29:20.229Z,100478.72
2022-12-26T16:31:47.477Z,100489.66
2022-12-26T16:34:20.177Z,100485.44
2022-12-26T16:36:50.050Z,100484.88
2022-12-26T16:39:23.333Z,100483.19
2022-12-26T16:42:05.657Z,100490.91
2022-12-26T16:44:40.847Z,100495.00
2022-12-26T16:47:12.074Z,100491.59
2022-12-26T16:49:41.620Z,100501.72
2022-12-26T16:52:34.136Z,100499.88
2022-12-26T16:55:22.615Z,100509.69
2022-12-26T16:57:51.557Z,100505.50
2022-12-26T17:00:20.112Z,100522.78
2022-12-26T17:02:49.658Z,100509.84
2022-12-26T17:05:27.048Z,100514.63
2022-12-26T17:07:55.788Z,100528.94
2022-12-26T17:10:28.675Z,100511.53
2022-12-26T17:13:00.198Z,100539.47
2022-12-26T17:15:31.040Z,100525.13
2022-12-26T17:18:00.313Z,100530.72
2022-12-26T17:20:34.048Z,100538.91
2022-12-26T17:23:34.339Z,100540.84
2022-12-26T17:26:24.660Z,100548.13
2022-12-26T17:28:51.242Z,100545.75
2022-12-26T17:31:30.342Z,100541.84
2022-12-26T17:33:57.683Z,100545.91
2022-12-26T17:37:08.751Z,100553.34
2022-12-26T17:39:24.435Z,100549.84
2022-12-26T17:41:54.420Z,100549.44
2022-12-26T17:44:32.845Z,100538.75
2022-12-26T17:47:02.706Z,100545.50
2022-12-26T17:49:29.246Z,100554.47
2022-12-26T17:52:01.578Z,100548.03
2022-12-26T17:54:28.514Z,100556.16
2022-12-26T17:56:55.020Z,100555.59
2022-12-26T17:59:22.593Z,100558.53
2022-12-26T18:01:49.409Z,100564.69
2022-12-26T18:04:15.951Z,100569.72
2022-12-26T18:06:42.506Z,100584.75
2022-12-26T18:09:28.489Z,100570.44
2022-12-26T18:11:55.418Z,100577.91
2022-12-26T18:14:22.487Z,100588.81
2022-12-26T18:16:51.301Z,100592.50
2022-12-26T18:19:19.367Z,100594.13
2022-12-26T18:21:46.208Z,100593.84
2022-12-26T18:24:13.315Z,100599.63
2022-12-26T18:26:40.474Z,100592.88
2022-12-26T18:29:07.200Z,100600.16
2022-12-26T18:31:33.645Z,100588.63
2022-12-26T18:34:00.148Z,100587.25
2022-12-26T18:36:33.943Z,100587.00
2022-12-26T18:39:00.372Z,100607.81
2022-12-26T18:41:27.176Z,100608.69
2022-12-26T18:43:53.904Z,100604.16
2022-12-26T18:46:23.225Z,100607.88
2022-12-26T18:48:51.064Z,100610.38
2022-12-26T18:51:17.574Z,100612.94
2022-12-26T18:53:44.188Z,100615.28
2022-12-26T18:56:16.695Z,100624.59
2022-12-26T18:58:43.352Z,100626.44
2022-12-26T19:01:13.681Z,100623.50
2022-12-26T19:03:41.226Z,100622.78
2022-12-26T19:06:13.571Z,100622.78
2022-12-26T19:08:40.097Z,100634.16
2022-12-26T19:11:06.560Z,100643.13
2022-12-26T19:13:33.146Z,100644.03
2022-12-26T19:16:00.210Z,100644.34
2022-12-26T19:18:26.731Z,100654.41
2022-12-26T19:20:53.290Z,100666.84
2022-12-26T19:23:19.771Z,100679.13
2022-12-26T19:25:46.228Z,100680.34
2022-12-26T19:28:12.730Z,100677.66
2022-12-26T19:30:39.426Z,100672.28
2022-12-26T19:33:06.248Z,100684.66
2022-12-26T19:35:32.909Z,100682.00
2022-12-26T19:37:59.394Z,100684.84
2022-12-26T19:40:25.938Z,100697.50
2022-12-26T19:42:53.093Z,100710.03
2022-12-26T19:45:19.730Z,100712.09
2022-12-26T19:47:46.270Z,100733.25
2022-12-26T19:50:12.738Z,100721.53
2022-12-26T19:52:40.684Z,100716.91
2022-12-26T19:55:08.536Z,100729.34
2022-12-26T19:57:35.099Z,100736.94
2022-12-26T20:00:01.639Z,100755.19
2022-12-26T20:02:28.232Z,100750.84
2022-12-26T20:04:54.850Z,100746.31
2022-12-26T20:07:21.388Z,100761.56
2022-12-26T20:09:48.035Z,100747.91
2022-12-26T20:12:14.501Z,100756.78
2022-12-26T20:14:41.123Z,100763.06
2022-12-26T20:17:09.432Z,100772.09
2022-12-26T20:19:36.691Z,100773.91
2022-12-26T20:22:04.186Z,100786.13
2022-12-26T20:24:30.813Z,100793.97
2022-12-26T20:26:57.358Z,100794.13
2022-12-26T20:29:23.829Z,100784.09
2022-12-26T20:31:50.384Z,100783.34
2022-12-26T20:34:17.474Z,100777.91
2022-12-26T20:36:43.954Z,100776.34
2022-12-26T20:39:13.717Z,100786.75
2022-12-26T20:41:40.530Z,100794.47
2022-12-26T20:44:07.063Z,100805.56
2022-12-26T20:46:35.091Z,100813.44
2022-12-26T20:49:04.433Z,100821.56
2022-12-26T20:51:37.305Z,100820.69
2022-12-26T20:54:07.099Z,100829.53
2022-12-26T20:56:34.837Z,100825.78
2022-12-26T20:59:01.331Z,100835.97
2022-12-26T21:01:28.743Z,100830.63
2022-12-26T21:03:56.683Z,100831.22
2022-12-26T21:06:29.675Z,100836.28
2022-12-26T21:08:57.606Z,100832.56
2022-12-26T21:11:36.096Z,100845.59
2022-12-26T21:14:05.701Z,100854.19
2022-12-26T21:16:41.398Z,100848.63
2022-12-26T21:19:14.577Z,100863.38
2022-12-26T21:21:43.911Z,100855.75
2022-12-26T21:24:16.489Z,100858.63
2022-12-26T21:26:44.205Z,100873.03
2022-12-26T21:29:16.314Z,100879.63
2022-12-26T21:31:43.181Z,100888.31
2022-12-26T21:34:12.732Z,100886.81
2022-12-26T21:36:39.499Z,100893.31
2022-12-26T21:39:08.670Z,100902.56
2022-12-26T21:41:37.347Z,100897.94
2022-12-26T21:44:03.993Z,100901.75
2022-12-26T21:46:30.639Z,100910.59
2022-12-26T21:48:57.119Z,100914.66
2022-12-26T21:51:28.781Z,100917.06
2022-12-26T21:54:15.117Z,100923.44
2022-12-26T21:56:41.564Z,100928.97
2022-12-26T21:59:28.159Z,100935.41
2022-12-26T22:01:54.726Z,100943.63
2022-12-26T22:04:23.438Z,100937.47
2022-12-26T22:06:51.017Z,100935.50
2022-12-26T22:09:17.787Z,100935.56
2022-12-26T22:12:03.752Z,100946.28
2022-12-26T22:14:30.218Z,100959.56
2022-12-26T22:16:57.772Z,100947.28
2022-12-26T22:19:25.437Z,100954.50
2022-12-26T22:21:53.229Z,100966.56
2022-12-26T22:24:21.698Z,100984.03
2022-12-26T22:26:48.218Z,100974.88
2022-12-26T22:29:14.729Z,100987.31
2022-12-26T22:31:41.141Z,100990.75
2022-12-26T22:34:12.280Z,100987.63
2022-12-26T22:36:39.407Z,100995.16
2022-12-26T22:39:06.316Z,101005.78
2022-12-26T22:41:34.283Z,101017.16
2022-12-26T22:44:00.740Z,101012.91
2022-12-26T22:46:27.338Z,101017.59
2022-12-26T22:48:53.976Z,101024.38
2022-12-26T22:51:24.930Z,101030.13
2022-12-26T22:53:59.570Z,101040.09
2022-12-26T22:56:26.247Z,101037.56
2022-12-26T22:58:54.422Z,101036.72
2022-12-26T23:01:22.101Z,101037.63
2022-12-26T23:03:49.240Z,101038.50
2022-12-26T23:06:23.199Z,101047.19
2022-12-26T23:08:52.865Z,101054.25
2022-12-26T23:11:19.978Z,101050.63
2022-12-26T23:13:47.061Z,101054.03
2022-12-26T23:16:23.486Z,101057.50
2022-12-26T23:19:33.055Z,101053.56
2022-12-26T23:22:01.409Z,101058.66
2022-12-26T23:24:30.027Z,101050.75
2022-12-26T23:27:19.689Z,101057.34
2022-12-26T23:30:05.598Z,101053.28
2022-12-26T23:32:33.022Z,101049.38
2022-12-26T23:34:59.596Z,101056.81
2022-12-26T23:37:26.129Z,101056.16
2022-12-26T23:39:52.655Z,101066.06
2022-12-26T23:42:19.143Z,101064.53
2022-12-26T23:44:45.575Z,101065.06
2022-12-26T23:47:12.246Z,101057.41
2022-12-26T23:49:38.728Z,101063.25
2022-12-26T23:52:05.367Z,101069.34
2022-12-26T23:54:31.882Z,101071.13
2022-12-26T23:56:58.365Z,101075.47
2022-12-26T23:59:24.868Z,101076.75
